createdAt,value
2023-05-22T00:02:10.357Z,14.26
2023-05-22T00:04:37.180Z,14.25
2023-05-22T00:07:03.953Z,13.93
2023-05-22T00:09:30.689Z,14.18
2023-05-22T00:11:57.410Z,14.17
2023-05-22T00:14:24.058Z,14.14
2023-05-22T00:16:50.778Z,14.01
2023-05-22T00:19:23.462Z,14.12
2023-05-22T00:21:54.982Z,14.11
2023-05-22T00:24:21.809Z,14.08
2023-05-22T00:26:48.462Z,13.96
2023-05-22T00:29:15.221Z,14.03
2023-05-22T00:31:44.281Z,14.04
2023-05-22T00:34:11.153Z,14.03
2023-05-22T00:36:40.245Z,13.99
2023-05-22T00:39:06.885Z,13.99
2023-05-22T00:41:36.556Z,13.95
2023-05-22T00:44:03.231Z,13.95
2023-05-22T00:46:29.997Z,13.93
2023-05-22T00:48:56.897Z,13.92
2023-05-22T00:51:24.636Z,13.92
2023-05-22T00:53:52.092Z,13.78
2023-05-22T00:56:19.554Z,13.84
2023-05-22T00:58:46.384Z,13.86
2023-05-22T01:01:13.413Z,13.66
2023-05-22T01:03:45.070Z,13.82
2023-05-22T01:06:13.769Z,13.82
2023-05-22T01:08:41.507Z,13.77
2023-05-22T01:11:18.190Z,13.78
2023-05-22T01:14:11.030Z,13.74
2023-05-22T01:16:51.370Z,13.66
2023-05-22T01:19:35.142Z,13.69
2023-05-22T01:22:58.523Z,13.64
2023-05-22T01:25:45.412Z,13.62
2023-05-22T01:28:15.134Z,13.59
2023-05-22T01:31:02.133Z,13.56
2023-05-22T01:33:33.562Z,13.53
2023-05-22T01:36:05.947Z,13.48
2023-05-22T01:38:33.070Z,13.49
2023-05-22T01:41:04.494Z,13.48
2023-05-22T01:43:31.299Z,13.46
2023-05-22T01:46:03.204Z,13.46
2023-05-22T01:48:30.175Z,13.42
2023-05-22T01:51:05.519Z,13.46
2023-05-22T01:53:56.835Z,13.46
2023-05-22T01:56:32.580Z,13.46
2023-05-22T01:59:04.502Z,13.45
2023-05-22T02:01:37.978Z,13.44
2023-05-22T02:04:08.235Z,13.45
2023-05-22T02:06:35.115Z,13.43
2023-05-22T02:09:03.202Z,13.32
2023-05-22T02:11:33.131Z,13.40
2023-05-22T02:14:03.029Z,13.37
2023-05-22T02:16:30.415Z,13.31
2023-05-22T02:19:06.722Z,13.24
2023-05-22T02:21:38.998Z,13.35
2023-05-22T02:24:05.852Z,13.30
2023-05-22T02:26:32.791Z,13.35
2023-05-22T02:28:59.548Z,13.35
2023-05-22T02:31:26.545Z,13.38
2023-05-22T02:33:53.239Z,13.38
2023-05-22T02:36:19.982Z,13.37
2023-05-22T02:38:46.694Z,13.34
2023-05-22T02:41:13.724Z,13.31
2023-05-22T02:43:42.690Z,13.29
2023-05-22T02:46:09.539Z,13.24
2023-05-22T02:48:36.347Z,13.18
2023-05-22T02:51:03.154Z,13.10
2023-05-22T02:53:33.667Z,13.14
2023-05-22T02:56:01.294Z,13.10
2023-05-22T02:58:30.398Z,13.07
2023-05-22T03:00:57.157Z,13.03
2023-05-22T03:03:25.220Z,12.96
2023-05-22T03:05:58.386Z,12.94
2023-05-22T03:08:28.376Z,12.92
2023-05-22T03:10:58.916Z,12.87
2023-05-22T03:13:25.718Z,12.84
2023-05-22T03:15:52.559Z,12.79
2023-05-22T03:18:19.313Z,12.77
2023-05-22T03:20:46.186Z,12.77
2023-05-22T03:23:18.058Z,12.72
2023-05-22T03:25:44.700Z,12.69
2023-05-22T03:28:15.003Z,12.67
2023-05-22T03:30:44.053Z,12.59
2023-05-22T03:33:11.806Z,12.61
2023-05-22T03:35:38.566Z,12.44
2023-05-22T03:38:05.270Z,12.53
2023-05-22T03:40:31.910Z,12.51
2023-05-22T03:42:58.520Z,12.47
2023-05-22T03:45:25.172Z,12.49
2023-05-22T03:47:52.131Z,12.42
2023-05-22T03:50:18.846Z,12.47
2023-05-22T03:52:47.938Z,12.46
2023-05-22T03:55:14.698Z,12.27
2023-05-22T03:57:41.400Z,12.42
2023-05-22T04:00:12.660Z,12.41
2023-05-22T04:02:45.314Z,12.43
2023-05-22T04:05:12.387Z,12.43
2023-05-22T04:07:39.082Z,12.43
2023-05-22T04:10:11.142Z,12.20
2023-05-22T04:12:37.733Z,12.33
2023-05-22T04:15:04.730Z,12.44
2023-05-22T04:17:37.695Z,12.45
2023-05-22T04:20:05.372Z,12.45
2023-05-22T04:22:32.163Z,12.43
2023-05-22T04:24:58.906Z,12.27
2023-05-22T04:27:29.801Z,12.34
2023-05-22T04:29:56.466Z,12.52
2023-05-22T04:32:23.718Z,12.29
2023-05-22T04:34:53.121Z,12.48
2023-05-22T04:37:22.077Z,12.59
2023-05-22T04:39:48.867Z,12.60
2023-05-22T04:42:16.159Z,12.64
2023-05-22T04:44:43.799Z,12.67
2023-05-22T04:47:14.609Z,12.76
2023-05-22T04:49:42.603Z,12.77
2023-05-22T04:52:11.741Z,12.88
2023-05-22T04:54:39.019Z,12.92
2023-05-22T04:57:06.025Z,12.77
2023-05-22T04:59:38.028Z,13.07
2023-05-22T05:02:05.837Z,13.12
2023-05-22T05:04:34.997Z,13.16
2023-05-22T05:07:02.635Z,13.24
2023-05-22T05:09:31.987Z,13.23
2023-05-22T05:11:59.199Z,13.30
2023-05-22T05:14:28.650Z,13.37
2023-05-22T05:16:59.913Z,13.38
2023-05-22T05:19:26.727Z,13.49
2023-05-22T05:21:53.560Z,13.43
2023-05-22T05:24:22.708Z,13.47
2023-05-22T05:26:50.634Z,13.60
2023-05-22T05:29:17.849Z,13.43
2023-05-22T05:31:44.584Z,13.60
2023-05-22T05:34:11.308Z,13.64
2023-05-22T05:36:41.215Z,13.64
2023-05-22T05:39:10.166Z,13.64
2023-05-22T05:41:39.343Z,13.67
2023-05-22T05:44:06.074Z,13.67
2023-05-22T05:46:32.884Z,13.69
2023-05-22T05:48:59.654Z,13.69
2023-05-22T05:51:26.601Z,13.68
2023-05-22T05:53:53.277Z,13.68
2023-05-22T05:56:20.066Z,13.79
2023-05-22T05:58:49.696Z,13.84
2023-05-22T06:01:16.724Z,13.71
2023-05-22T06:03:46.083Z,13.97
2023-05-22T06:06:12.836Z,14.05
2023-05-22T06:08:42.315Z,14.11
2023-05-22T06:11:11.410Z,14.16
2023-05-22T06:13:38.115Z,14.30
2023-05-22T06:16:06.745Z,14.38
2023-05-22T06:18:33.747Z,14.43
2023-05-22T06:21:00.420Z,14.46
2023-05-22T06:23:27.257Z,14.50
2023-05-22T06:25:56.432Z,14.51
2023-05-22T06:28:23.357Z,14.57
2023-05-22T06:30:50.315Z,14.60
2023-05-22T06:33:19.369Z,14.69
2023-05-22T06:35:46.142Z,14.75
2023-05-22T06:38:12.860Z,14.86
2023-05-22T06:40:39.713Z,14.95
2023-05-22T06:43:06.469Z,15.01
2023-05-22T06:45:33.113Z,14.97
2023-05-22T06:47:59.903Z,15.07
2023-05-22T06:50:26.628Z,15.18
2023-05-22T06:52:53.459Z,15.20
2023-05-22T06:55:20.138Z,15.22
2023-05-22T06:57:49.301Z,15.39
2023-05-22T07:00:16.643Z,15.45
2023-05-22T07:02:50.615Z,15.48
2023-05-22T07:05:19.901Z,15.52
2023-05-22T07:07:46.798Z,15.54
2023-05-22T07:10:13.607Z,15.58
2023-05-22T07:12:40.602Z,15.42
2023-05-22T07:15:12.333Z,15.61
2023-05-22T07:17:41.893Z,15.68
2023-05-22T07:20:10.777Z,15.73
2023-05-22T07:22:37.853Z,15.75
2023-05-22T07:25:05.113Z,15.82
2023-05-22T07:27:31.763Z,15.89
2023-05-22T07:29:58.558Z,15.97
2023-05-22T07:32:25.362Z,16.07
2023-05-22T07:34:52.582Z,16.14
2023-05-22T07:37:19.294Z,16.24
2023-05-22T07:39:46.911Z,16.34
2023-05-22T07:42:16.557Z,16.46
2023-05-22T07:44:45.606Z,16.65
2023-05-22T07:47:12.453Z,17.04
2023-05-22T07:49:39.167Z,17.28
2023-05-22T07:52:06.479Z,17.50
2023-05-22T07:54:35.481Z,17.70
2023-05-22T07:57:03.720Z,17.92
2023-05-22T07:59:30.500Z,18.29
2023-05-22T08:01:58.424Z,18.56
2023-05-22T08:04:26.261Z,18.61
2023-05-22T08:06:55.747Z,18.65
2023-05-22T08:09:22.470Z,18.63
2023-05-22T08:11:49.185Z,18.63
2023-05-22T08:14:16.046Z,18.70
2023-05-22T08:16:47.352Z,18.81
2023-05-22T08:19:14.501Z,18.95
2023-05-22T08:21:44.325Z,19.10
2023-05-22T08:24:13.352Z,19.20
2023-05-22T08:26:43.818Z,19.21
2023-05-22T08:29:11.627Z,19.30
2023-05-22T08:31:38.352Z,19.38
2023-05-22T08:34:10.862Z,19.54
2023-05-22T08:36:37.605Z,19.77
2023-05-22T08:39:04.489Z,20.00
2023-05-22T08:41:31.182Z,20.32
2023-05-22T08:43:58.030Z,20.65
2023-05-22T08:46:29.223Z,20.91
2023-05-22T08:48:58.030Z,21.23
2023-05-22T08:51:34.469Z,21.68
2023-05-22T08:54:05.133Z,22.40
2023-05-22T08:56:35.427Z,23.29
2023-05-22T08:59:11.559Z,23.96
2023-05-22T09:01:38.487Z,24.44
2023-05-22T09:04:07.400Z,24.32
2023-05-22T09:06:34.359Z,24.14
2023-05-22T09:09:01.623Z,24.10
2023-05-22T09:11:28.318Z,24.06
2023-05-22T09:14:07.332Z,23.95
2023-05-22T09:16:46.707Z,23.98
2023-05-22T09:19:14.933Z,24.05
2023-05-22T09:21:43.235Z,24.21
2023-05-22T09:24:11.068Z,24.32
2023-05-22T09:26:41.466Z,24.44
2023-05-22T09:29:13.055Z,24.44
2023-05-22T09:31:43.850Z,24.13
2023-05-22T09:34:14.262Z,23.65
2023-05-22T09:36:41.912Z,23.25
2023-05-22T09:39:10.987Z,22.75
2023-05-22T09:41:40.903Z,22.33
2023-05-22T09:44:14.013Z,21.89
2023-05-22T09:46:42.522Z,21.48
2023-05-22T09:49:09.387Z,21.16
2023-05-22T09:51:39.797Z,20.96
2023-05-22T09:54:08.487Z,20.83
2023-05-22T09:56:39.850Z,20.69
2023-05-22T09:59:09.640Z,20.54
2023-05-22T10:01:39.053Z,20.43
2023-05-22T10:04:11.074Z,20.53
2023-05-22T10:06:41.005Z,20.53
2023-05-22T10:09:18.282Z,20.49
2023-05-22T10:11:50.237Z,20.50
2023-05-22T10:14:17.006Z,20.62
2023-05-22T10:16:45.397Z,20.60
2023-05-22T10:19:13.678Z,20.80
2023-05-22T10:21:42.311Z,20.82
2023-05-22T10:24:10.192Z,20.86
2023-05-22T10:26:37.875Z,20.82
2023-05-22T10:29:38.498Z,20.76
2023-05-22T10:32:28.757Z,20.76
2023-05-22T10:35:20.600Z,20.72
2023-05-22T10:38:21.381Z,20.55
2023-05-22T10:40:48.967Z,20.46
2023-05-22T10:43:15.791Z,20.55
2023-05-22T10:45:46.877Z,20.55
2023-05-22T10:48:14.037Z,20.66
2023-05-22T10:50:51.464Z,20.77
2023-05-22T10:53:25.816Z,20.87
2023-05-22T10:55:53.647Z,20.87
2023-05-22T10:58:30.872Z,20.92
2023-05-22T11:01:27.278Z,20.85
2023-05-22T11:04:02.249Z,20.87
2023-05-22T11:06:41.121Z,20.90
2023-05-22T11:09:29.638Z,20.95
2023-05-22T11:12:25.198Z,21.09
2023-05-22T11:14:53.690Z,21.10
2023-05-22T11:17:24.334Z,21.14
2023-05-22T11:20:01.342Z,21.21
2023-05-22T11:22:36.814Z,21.22
2023-05-22T11:25:07.232Z,21.21
2023-05-22T11:27:34.749Z,21.16
2023-05-22T11:30:01.934Z,21.12
2023-05-22T11:32:28.968Z,21.37
2023-05-22T11:34:59.809Z,21.38
2023-05-22T11:37:29.091Z,21.43
2023-05-22T11:39:57.668Z,21.53
2023-05-22T11:42:26.640Z,21.61
2023-05-22T11:44:55.581Z,21.58
2023-05-22T11:47:25.324Z,21.50
2023-05-22T11:49:52.264Z,21.38
2023-05-22T11:52:19.125Z,21.27
2023-05-22T11:54:47.268Z,21.12
2023-05-22T11:57:15.413Z,21.03
2023-05-22T11:59:48.802Z,20.97
2023-05-22T12:02:19.752Z,20.93
2023-05-22T12:04:46.973Z,20.88
2023-05-22T12:07:16.598Z,20.91
2023-05-22T12:09:43.308Z,20.94
2023-05-22T12:12:11.712Z,20.97
2023-05-22T12:14:47.075Z,20.92
2023-05-22T12:17:17.489Z,20.79
2023-05-22T12:19:44.915Z,20.91
2023-05-22T12:22:12.016Z,20.91
2023-05-22T12:24:48.773Z,20.86
2023-05-22T12:27:17.740Z,20.83
2023-05-22T12:29:46.667Z,20.86
2023-05-22T12:32:15.778Z,20.90
2023-05-22T12:34:44.802Z,20.82
2023-05-22T12:37:28.546Z,21.05
2023-05-22T12:40:02.224Z,21.06
2023-05-22T12:42:29.177Z,21.01
2023-05-22T12:44:58.259Z,20.99
2023-05-22T12:47:25.415Z,21.05
2023-05-22T12:49:54.909Z,21.07
2023-05-22T12:52:21.628Z,21.00
2023-05-22T12:54:51.120Z,20.89
2023-05-22T12:57:17.799Z,20.96
2023-05-22T12:59:44.479Z,20.95
2023-05-22T13:02:11.393Z,20.98
2023-05-22T13:04:38.194Z,21.02
2023-05-22T13:07:05.058Z,20.95
2023-05-22T13:09:31.836Z,20.99
2023-05-22T13:12:00.910Z,21.07
2023-05-22T13:14:27.590Z,21.09
2023-05-22T13:16:54.292Z,21.17
2023-05-22T13:19:21.102Z,21.11
2023-05-22T13:21:47.795Z,21.07
2023-05-22T13:24:14.526Z,21.04
2023-05-22T13:26:43.535Z,21.08
2023-05-22T13:29:10.243Z,21.05
2023-05-22T13:31:37.647Z,20.98
2023-05-22T13:34:05.246Z,20.93
2023-05-22T13:36:32.647Z,20.86
2023-05-22T13:38:59.667Z,20.76
2023-05-22T13:41:26.535Z,20.69
2023-05-22T13:43:53.323Z,20.76
2023-05-22T13:46:21.943Z,20.79
2023-05-22T13:48:48.923Z,20.81
2023-05-22T13:51:15.802Z,20.85
2023-05-22T13:53:42.539Z,20.88
2023-05-22T13:56:11.671Z,20.89
2023-05-22T13:58:38.335Z,20.87
2023-05-22T14:01:05.140Z,20.87
2023-05-22T14:03:31.983Z,20.78
2023-05-22T14:05:58.803Z,20.75
2023-05-22T14:08:25.571Z,20.81
2023-05-22T14:10:54.750Z,20.80
2023-05-22T14:13:21.497Z,20.68
2023-05-22T14:15:50.866Z,20.66
2023-05-22T14:18:20.051Z,20.52
2023-05-22T14:20:46.913Z,20.81
2023-05-22T14:23:15.449Z,20.86
2023-05-22T14:25:44.398Z,20.88
2023-05-22T14:28:16.528Z,20.88
2023-05-22T14:30:46.050Z,20.88
2023-05-22T14:33:12.792Z,20.88
2023-05-22T14:35:39.666Z,20.78
2023-05-22T14:38:08.536Z,20.94
2023-05-22T14:40:37.690Z,20.93
2023-05-22T14:43:04.425Z,20.82
2023-05-22T14:45:31.186Z,20.80
2023-05-22T14:48:00.258Z,20.82
2023-05-22T14:50:27.975Z,20.85
2023-05-22T14:52:54.745Z,20.93
2023-05-22T14:55:27.770Z,20.97
2023-05-22T14:57:54.828Z,21.04
2023-05-22T15:00:21.593Z,21.10
2023-05-22T15:02:48.340Z,21.16
2023-05-22T15:05:15.189Z,21.03
2023-05-22T15:07:45.309Z,21.03
2023-05-22T15:10:13.055Z,21.18
2023-05-22T15:12:39.967Z,21.22
2023-05-22T15:15:07.176Z,21.26
2023-05-22T15:17:40.814Z,21.38
2023-05-22T15:20:09.737Z,21.51
2023-05-22T15:22:36.558Z,21.59
2023-05-22T15:25:11.837Z,21.64
2023-05-22T15:27:39.681Z,21.67
2023-05-22T15:30:10.117Z,21.69
2023-05-22T15:32:37.610Z,21.60
2023-05-22T15:35:05.800Z,21.61
2023-05-22T15:37:33.955Z,21.64
2023-05-22T15:40:02.018Z,21.59
2023-05-22T15:42:29.465Z,21.54
2023-05-22T15:44:56.841Z,21.53
2023-05-22T15:47:23.565Z,21.53
2023-05-22T15:49:50.371Z,21.62
2023-05-22T15:52:19.576Z,21.67
2023-05-22T15:54:46.274Z,21.65
2023-05-22T15:57:13.072Z,21.68
2023-05-22T15:59:39.718Z,21.65
2023-05-22T16:02:06.442Z,21.62
2023-05-22T16:04:35.585Z,21.58
2023-05-22T16:07:02.236Z,21.66
2023-05-22T16:09:32.776Z,21.60
2023-05-22T16:12:02.568Z,21.67
2023-05-22T16:14:29.765Z,21.62
2023-05-22T16:17:01.463Z,21.60
2023-05-22T16:19:28.383Z,21.61
2023-05-22T16:21:55.222Z,21.60
2023-05-22T16:24:21.914Z,21.47
2023-05-22T16:26:53.287Z,21.51
2023-05-22T16:29:21.098Z,21.60
2023-05-22T16:31:52.168Z,21.65
2023-05-22T16:34:21.383Z,21.68
2023-05-22T16:36:50.416Z,21.68
2023-05-22T16:39:17.093Z,21.64
2023-05-22T16:41:43.964Z,21.78
2023-05-22T16:44:10.611Z,21.75
2023-05-22T16:46:39.703Z,21.74
2023-05-22T16:49:06.416Z,21.77
2023-05-22T16:51:33.258Z,21.72
2023-05-22T16:54:00.068Z,21.77
2023-05-22T16:56:27.533Z,21.71
2023-05-22T16:58:54.274Z,21.66
2023-05-22T17:01:23.658Z,21.61
2023-05-22T17:03:54.017Z,21.56
2023-05-22T17:06:21.155Z,21.55
2023-05-22T17:08:47.940Z,21.56
2023-05-22T17:11:14.619Z,21.56
2023-05-22T17:13:43.620Z,21.54
2023-05-22T17:16:10.275Z,21.50
2023-05-22T17:18:37.913Z,21.33
2023-05-22T17:21:04.750Z,21.33
2023-05-22T17:23:31.399Z,21.49
2023-05-22T17:26:03.012Z,21.49
2023-05-22T17:28:29.714Z,21.48
2023-05-22T17:30:56.577Z,21.46
2023-05-22T17:33:26.386Z,21.45
2023-05-22T17:35:53.265Z,21.44
2023-05-22T17:38:21.957Z,21.45
2023-05-22T17:40:52.018Z,21.43
2023-05-22T17:43:21.532Z,21.36
2023-05-22T17:45:51.396Z,21.32
2023-05-22T17:48:27.380Z,21.31
2023-05-22T17:50:56.679Z,21.23
2023-05-22T17:53:23.433Z,21.23
2023-05-22T17:55:52.365Z,21.19
2023-05-22T17:58:20.696Z,21.14
2023-05-22T18:00:48.811Z,21.08
2023-05-22T18:03:21.536Z,21.03
2023-05-22T18:05:50.023Z,21.00
2023-05-22T18:08:17.910Z,20.96
2023-05-22T18:10:44.720Z,20.83
2023-05-22T18:13:11.454Z,20.87
2023-05-22T18:15:38.184Z,20.89
2023-05-22T18:18:05.292Z,20.86
2023-05-22T18:20:33.543Z,20.83
2023-05-22T18:23:01.021Z,20.73
2023-05-22T18:25:27.967Z,20.68
2023-05-22T18:27:57.072Z,20.65
2023-05-22T18:30:23.744Z,20.63
2023-05-22T18:32:52.854Z,20.57
2023-05-22T18:35:19.606Z,20.54
2023-05-22T18:37:48.840Z,20.50
2023-05-22T18:40:15.885Z,20.53
2023-05-22T18:42:43.559Z,20.49
2023-05-22T18:45:12.003Z,20.40
2023-05-22T18:47:38.920Z,20.38
2023-05-22T18:50:06.166Z,20.33
2023-05-22T18:52:32.815Z,20.29
2023-05-22T18:54:59.653Z,20.25
2023-05-22T18:57:26.288Z,20.19
2023-05-22T18:59:52.977Z,20.17
2023-05-22T19:02:24.784Z,20.13
2023-05-22T19:04:51.692Z,20.10
2023-05-22T19:07:21.395Z,19.96
2023-05-22T19:09:49.733Z,20.02
2023-05-22T19:12:16.548Z,19.90
2023-05-22T19:14:43.407Z,19.94
2023-05-22T19:17:10.335Z,19.96
2023-05-22T19:19:37.337Z,19.92
2023-05-22T19:22:04.162Z,19.77
2023-05-22T19:24:33.108Z,19.82
2023-05-22T19:26:59.838Z,19.77
2023-05-22T19:29:26.671Z,19.72
2023-05-22T19:31:56.233Z,19.69
2023-05-22T19:34:22.939Z,19.66
2023-05-22T19:36:51.747Z,19.62
2023-05-22T19:39:21.001Z,19.57
2023-05-22T19:41:47.789Z,19.54
2023-05-22T19:44:14.564Z,19.49
2023-05-22T19:46:43.574Z,19.41
2023-05-22T19:49:12.979Z,19.42
2023-05-22T19:51:39.697Z,19.38
2023-05-22T19:54:06.619Z,19.31
2023-05-22T19:56:35.064Z,19.26
2023-05-22T19:59:01.833Z,19.21
2023-05-22T20:01:28.899Z,19.14
2023-05-22T20:03:56.271Z,19.10
2023-05-22T20:06:23.342Z,19.03
2023-05-22T20:08:50.152Z,18.97
2023-05-22T20:11:19.513Z,18.81
2023-05-22T20:13:46.403Z,18.84
2023-05-22T20:16:17.703Z,18.80
2023-05-22T20:18:44.923Z,18.74
2023-05-22T20:21:11.579Z,18.70
2023-05-22T20:23:40.814Z,18.66
2023-05-22T20:26:10.234Z,18.60
2023-05-22T20:28:36.905Z,18.53
2023-05-22T20:31:06.165Z,18.49
2023-05-22T20:33:33.105Z,18.43
2023-05-22T20:36:01.322Z,18.36
2023-05-22T20:38:34.865Z,18.32
2023-05-22T20:41:08.159Z,18.29
2023-05-22T20:43:36.377Z,18.23
2023-05-22T20:46:03.276Z,18.21
2023-05-22T20:48:32.601Z,18.17
2023-05-22T20:50:59.252Z,18.14
2023-05-22T20:53:26.106Z,18.08
2023-05-22T20:55:53.386Z,18.03
2023-05-22T20:58:20.234Z,17.99
2023-05-22T21:00:50.211Z,17.92
2023-05-22T21:03:17.768Z,17.89
2023-05-22T21:05:44.512Z,17.79
2023-05-22T21:08:13.762Z,17.81
2023-05-22T21:10:42.781Z,17.67
2023-05-22T21:13:09.499Z,17.62
2023-05-22T21:15:36.308Z,17.70
2023-05-22T21:18:08.298Z,17.67
2023-05-22T21:20:39.921Z,17.60
2023-05-22T21:23:06.863Z,17.54
2023-05-22T21:25:33.689Z,17.50
2023-05-22T21:28:01.871Z,17.46
2023-05-22T21:30:28.544Z,17.42
2023-05-22T21:32:57.594Z,17.37
2023-05-22T21:35:27.252Z,17.24
2023-05-22T21:37:56.475Z,17.28
2023-05-22T21:40:23.304Z,17.07
2023-05-22T21:42:49.977Z,17.22
2023-05-22T21:45:19.258Z,17.09
2023-05-22T21:47:46.071Z,17.14
2023-05-22T21:50:15.471Z,17.09
2023-05-22T21:52:42.147Z,16.92
2023-05-22T21:55:09.169Z,17.01
2023-05-22T21:57:36.445Z,16.72
2023-05-22T22:00:03.622Z,16.91
2023-05-22T22:02:30.306Z,16.77
2023-05-22T22:04:59.240Z,16.79
2023-05-22T22:07:26.164Z,16.77
2023-05-22T22:09:52.859Z,16.71
2023-05-22T22:12:19.604Z,16.66
2023-05-22T22:14:48.515Z,16.58
2023-05-22T22:17:16.887Z,16.40
2023-05-22T22:19:44.485Z,16.45
2023-05-22T22:22:12.568Z,16.33
2023-05-22T22:24:39.465Z,16.37
2023-05-22T22:27:08.432Z,16.32
2023-05-22T22:29:37.455Z,16.26
2023-05-22T22:32:04.337Z,16.22
2023-05-22T22:34:31.200Z,16.18
2023-05-22T22:36:57.931Z,16.15
2023-05-22T22:39:27.098Z,16.10
2023-05-22T22:41:56.040Z,16.08
2023-05-22T22:44:22.732Z,16.06
2023-05-22T22:46:49.735Z,15.95
2023-05-22T22:49:21.819Z,15.93
2023-05-22T22:51:49.374Z,15.93
2023-05-22T22:54:18.270Z,15.86
2023-05-22T22:56:46.950Z,15.80
2023-05-22T22:59:13.676Z,15.69
2023-05-22T23:01:40.466Z,15.69
2023-05-22T23:04:07.207Z,15.48
2023-05-22T23:06:34.686Z,15.47
2023-05-22T23:09:03.249Z,15.54
2023-05-22T23:11:37.706Z,15.55
2023-05-22T23:14:07.484Z,15.51
2023-05-22T23:16:41.529Z,15.46
2023-05-22T23:19:09.490Z,15.42
2023-05-22T23:21:36.603Z,15.36
2023-05-22T23:24:04.665Z,15.35
2023-05-22T23:26:31.931Z,15.30
2023-05-22T23:29:01.663Z,15.27
2023-05-22T23:31:31.894Z,15.22
2023-05-22T23:34:01.256Z,15.17
2023-05-22T23:36:29.224Z,14.97
2023-05-22T23:38:58.086Z,15.04
2023-05-22T23:41:27.695Z,14.97
2023-05-22T23:43:54.427Z,14.90
2023-05-22T23:46:24.647Z,14.83
2023-05-22T23:48:51.680Z,14.80
2023-05-22T23:51:20.946Z,14.76
2023-05-22T23:53:47.674Z,14.74
2023-05-22T23:56:14.335Z,14.63
2023-05-22T23:58:41.013Z,14.61
